Time;durP1;ratioP1;P1;durP2;ratioP2;P2;SDS_P1;SDS_P2;PMS_P1;PMS_P2;Temp;Humidity;BMP_temperature;BMP_pressure;BME280_temperature;BME280_humidity;BME280_pressure;Samples;Min_cycle;Max_cycle;Signal;HPM_P1;HPM_P2
2023/06/11 00:01:17;;;;;;;13.85;7.82;;;19.90;93.40;;;;;;5034747;28;20124;-89
2023/06/11 00:03:46;;;;;;;14.70;8.13;;;20.50;93.80;;;;;;5035829;28;20088;-89
2023/06/11 00:06:17;;;;;;;12.70;7.68;;;19.80;93.70;;;;;;5034127;28;20052;-89
2023/06/11 00:08:46;;;;;;;13.68;7.85;;;19.90;94.00;;;;;;5034923;28;20500;-89
2023/06/11 00:11:12;;;;;;;13.05;8.15;;;19.80;93.90;;;;;;5035341;28;20428;-89
2023/06/11 00:13:37;;;;;;;13.60;8.23;;;19.80;94.00;;;;;;5034151;28;20049;-89
2023/06/11 00:16:03;;;;;;;11.88;8.20;;;19.80;94.00;;;;;;5033497;28;20381;-89
2023/06/11 00:18:28;;;;;;;13.50;8.13;;;19.70;94.10;;;;;;5034018;28;20045;-89
2023/06/11 00:20:58;;;;;;;12.32;8.00;;;19.70;94.20;;;;;;5035632;28;20057;-89
2023/06/11 00:23:24;;;;;;;13.75;8.00;;;19.70;94.30;;;;;;5034540;28;20049;-89
2023/06/11 00:25:54;;;;;;;12.48;7.63;;;19.70;94.30;;;;;;5034298;28;20099;-88
2023/06/11 00:28:20;;;;;;;12.07;8.25;;;19.60;94.60;;;;;;5033785;28;20092;-89
2023/06/11 00:30:45;;;;;;;11.50;8.13;;;19.60;94.60;;;;;;5034635;28;20045;-89
2023/06/11 00:33:11;;;;;;;11.10;7.55;;;19.60;94.60;;;;;;5035042;28;20034;-88
2023/06/11 00:35:37;;;;;;;11.43;7.65;;;19.50;94.60;;;;;;5033230;28;20068;-89
2023/06/11 00:38:05;;;;;;;14.38;7.47;;;19.50;94.70;;;;;;5035047;28;20057;-89
2023/06/11 00:40:31;;;;;;;11.80;7.75;;;19.40;95.00;;;;;;5035506;28;20147;-89
2023/06/11 00:42:57;;;;;;;10.82;7.40;;;19.40;94.80;;;;;;5033173;28;20045;-89
2023/06/11 00:45:24;;;;;;;12.45;7.72;;;20.00;95.20;;;;;;5034246;28;20452;-89
2023/06/11 00:47:50;;;;;;;13.00;7.68;;;19.40;95.00;;;;;;5037942;28;20084;-89
2023/06/11 00:50:16;;;;;;;12.20;8.07;;;19.30;95.00;;;;;;5032914;28;20081;-89
2023/06/11 00:52:42;;;;;;;12.40;7.78;;;19.50;95.10;;;;;;5035004;28;20081;-89
2023/06/11 00:55:08;;;;;;;14.40;8.20;;;19.30;95.20;;;;;;5037183;28;20096;-89
2023/06/11 00:57:35;;;;;;;12.40;7.30;;;19.20;95.30;;;;;;5058890;28;20033;-89
2023/06/11 01:00:03;;;;;;;11.68;7.55;;;19.80;95.50;;;;;;5049080;28;20056;-88
2023/06/11 01:02:44;;;;;;;11.63;7.65;;;19.20;95.30;;;;;;5036856;28;20048;-89
2023/06/11 01:05:17;;;;;;;13.30;8.13;;;19.20;95.60;;;;;;5037513;28;20098;-89
2023/06/11 01:07:50;;;;;;;12.77;7.68;;;19.10;95.50;;;;;;5034004;28;20085;-89
2023/06/11 01:10:17;;;;;;;12.57;7.97;;;19.00;95.50;;;;;;5034860;28;20111;-89
2023/06/11 01:12:43;;;;;;;15.77;8.27;;;19.00;95.60;;;;;;5032628;28;20101;-89
2023/06/11 01:15:13;;;;;;;12.25;8.13;;;19.20;95.70;;;;;;5033071;28;20470;-89
2023/06/11 01:17:55;;;;;;;12.05;7.97;;;18.90;95.70;;;;;;5032490;28;20099;-89
2023/06/11 01:20:28;;;;;;;11.57;7.68;;;18.90;96.80;;;;;;5267778;22;20136;-89
2023/06/11 01:23:09;;;;;;;11.50;7.68;;;18.80;96.20;;;;;;5034407;28;20057;-89
2023/06/11 01:26:01;;;;;;;14.52;8.18;;;18.90;96.30;;;;;;5033742;28;20072;-88
2023/06/11 01:28:30;;;;;;;13.80;7.90;;;18.70;96.50;;;;;;5032419;28;20061;-89
2023/06/11 01:30:59;;;;;;;15.32;7.95;;;18.70;96.20;;;;;;5034051;28;20060;-89
2023/06/11 01:33:26;;;;;;;12.73;7.93;;;18.60;96.30;;;;;;5033050;28;20044;-88
2023/06/11 01:35:57;;;;;;;13.23;7.97;;;18.60;96.40;;;;;;5032701;28;20055;-89
2023/06/11 01:38:23;;;;;;;12.25;8.25;;;18.70;96.60;;;;;;5033756;28;20045;-88
2023/06/11 01:40:49;;;;;;;12.25;7.75;;;18.60;96.70;;;;;;5031861;28;20040;-89
2023/06/11 01:43:15;;;;;;;12.88;8.20;;;18.50;96.70;;;;;;5033820;28;20045;-89
2023/06/11 01:45:40;;;;;;;12.68;8.25;;;18.40;97.00;;;;;;5032808;28;20440;-89
2023/06/11 01:48:06;;;;;;;15.40;9.05;;;18.40;96.80;;;;;;5032977;28;20041;-89
2023/06/11 01:50:33;;;;;;;13.75;8.30;;;18.40;97.00;;;;;;5032707;28;20056;-88
2023/06/11 01:52:58;;;;;;;12.35;8.50;;;18.50;97.00;;;;;;5032950;28;20041;-88
2023/06/11 01:55:24;;;;;;;12.43;8.57;;;18.40;97.20;;;;;;5032340;28;20116;-88
2023/06/11 01:57:49;;;;;;;13.57;8.30;;;18.30;97.30;;;;;;5032240;28;20140;-88
2023/06/11 02:00:16;;;;;;;12.77;8.65;;;18.60;97.50;;;;;;5031050;28;20080;-88
2023/06/11 02:02:46;;;;;;;14.77;9.07;;;18.30;97.50;;;;;;5031701;28;20045;-89
2023/06/11 02:05:12;;;;;;;13.20;8.75;;;18.10;97.60;;;;;;5031453;28;20045;-88
2023/06/11 02:07:37;;;;;;;14.20;8.40;;;18.20;97.80;;;;;;5032823;28;20041;-88
2023/06/11 02:10:03;;;;;;;12.45;8.50;;;18.20;97.90;;;;;;5032001;28;20041;-89
2023/06/11 02:12:29;;;;;;;12.88;8.38;;;18.10;97.90;;;;;;5031512;28;20136;-89
2023/06/11 02:14:55;;;;;;;13.18;9.10;;;18.10;98.00;;;;;;5031258;28;20493;-89
2023/06/11 02:17:21;;;;;;;12.40;8.95;;;18.10;98.30;;;;;;5033023;28;20417;-89
2023/06/11 02:19:47;;;;;;;13.80;9.27;;;18.00;98.40;;;;;;5032995;28;20057;-89
2023/06/11 02:22:13;;;;;;;12.20;8.82;;;18.10;98.40;;;;;;5032321;28;20046;-88
2023/06/11 02:24:38;;;;;;;14.52;9.00;;;17.90;98.50;;;;;;5031977;28;20439;-89
2023/06/11 02:27:05;;;;;;;15.02;8.65;;;18.00;98.70;;;;;;5032979;28;20045;-89
2023/06/11 02:29:30;;;;;;;12.93;8.85;;;17.90;98.80;;;;;;5030887;28;20045;-89
2023/06/11 02:31:56;;;;;;;13.43;8.70;;;17.90;98.80;;;;;;5031694;28;20104;-88
2023/06/11 02:34:21;;;;;;;12.75;8.75;;;17.80;98.90;;;;;;5033023;28;20045;-88
2023/06/11 02:36:47;;;;;;;13.40;8.93;;;18.00;99.10;;;;;;5031445;28;20420;-89
2023/06/11 02:39:13;;;;;;;14.93;9.25;;;17.80;99.10;;;;;;5033255;28;20084;-88
2023/06/11 02:41:38;;;;;;;14.43;9.30;;;17.70;99.30;;;;;;5034332;28;20045;-89
2023/06/11 02:44:04;;;;;;;14.75;9.43;;;17.60;99.50;;;;;;5033878;28;20044;-88
2023/06/11 02:46:29;;;;;;;13.20;9.15;;;18.10;99.80;;;;;;5031535;28;20370;-89
2023/06/11 02:48:55;;;;;;;15.63;8.80;;;17.60;99.80;;;;;;5031832;28;20566;-89
2023/06/11 02:51:21;;;;;;;13.30;9.45;;;17.90;99.90;;;;;;5030564;28;20041;-88
2023/06/11 02:53:46;;;;;;;15.00;9.00;;;17.60;99.90;;;;;;5031738;28;20103;-89
2023/06/11 02:56:12;;;;;;;13.98;9.10;;;17.50;99.90;;;;;;5030841;28;20485;-88
2023/06/11 02:58:37;;;;;;;13.63;9.10;;;17.50;99.90;;;;;;5031394;28;20040;-88
2023/06/11 03:01:03;;;;;;;13.55;9.43;;;17.50;99.90;;;;;;5031672;28;20037;-88
2023/06/11 03:03:28;;;;;;;14.77;9.40;;;17.50;99.90;;;;;;5030647;28;20483;-88
2023/06/11 03:05:54;;;;;;;14.60;10.07;;;17.30;99.90;;;;;;5032872;28;20041;-89
2023/06/11 03:08:20;;;;;;;14.30;9.55;;;17.30;99.90;;;;;;5032672;28;20108;-88
2023/06/11 03:10:45;;;;;;;14.48;9.98;;;17.30;99.90;;;;;;5030821;28;20048;-88
2023/06/11 03:13:11;;;;;;;15.43;9.75;;;17.30;99.90;;;;;;5031033;28;20527;-88
2023/06/11 03:15:36;;;;;;;14.80;9.52;;;17.20;99.90;;;;;;5031558;28;20069;-88
2023/06/11 03:18:03;;;;;;;13.48;9.85;;;17.20;99.90;;;;;;5031881;28;20473;-88
2023/06/11 03:20:28;;;;;;;14.43;9.93;;;17.20;99.90;;;;;;5014319;28;20058;-88
2023/06/11 03:22:54;;;;;;;13.18;9.48;;;17.30;99.90;;;;;;5031486;28;20084;-89
2023/06/11 03:25:21;;;;;;;14.65;10.30;;;17.10;99.90;;;;;;5031665;28;20540;-88
2023/06/11 03:27:47;;;;;;;13.77;10.50;;;17.10;99.90;;;;;;5032502;28;20038;-88
2023/06/11 03:30:13;;;;;;;17.40;10.57;;;17.40;99.90;;;;;;5032379;28;20041;-88
2023/06/11 03:32:39;;;;;;;15.50;10.52;;;17.10;99.90;;;;;;5035125;28;20053;-88
2023/06/11 03:35:05;;;;;;;14.98;10.23;;;17.10;99.90;;;;;;5035057;28;20045;-88
2023/06/11 03:37:30;;;;;;;14.18;9.60;;;17.10;99.90;;;;;;5035133;28;20049;-88
2023/06/11 03:39:56;;;;;;;15.13;10.38;;;17.10;99.90;;;;;;5034131;28;20084;-88
2023/06/11 03:42:22;;;;;;;13.73;10.10;;;17.10;99.90;;;;;;5034477;28;20063;-88
2023/06/11 03:44:49;;;;;;;16.35;10.80;;;17.10;99.90;;;;;;5034782;28;20128;-88
2023/06/11 03:47:15;;;;;;;14.60;10.15;;;17.10;99.90;;;;;;5034984;28;20514;-89
2023/06/11 03:49:41;;;;;;;15.82;10.80;;;17.10;99.90;;;;;;5034971;28;20123;-88
2023/06/11 03:52:07;;;;;;;16.67;10.38;;;17.10;99.90;;;;;;5034575;28;20053;-88
2023/06/11 03:54:32;;;;;;;13.95;9.90;;;17.10;99.90;;;;;;5035133;28;20520;-88
2023/06/11 03:56:58;;;;;;;16.25;10.32;;;17.10;99.90;;;;;;5034266;28;20038;-88
2023/06/11 03:59:23;;;;;;;15.07;10.10;;;17.70;99.90;;;;;;5035161;28;20140;-88
2023/06/11 04:01:49;;;;;;;14.27;10.50;;;17.10;99.90;;;;;;5022805;28;20034;-88
2023/06/11 04:04:15;;;;;;;16.92;11.27;;;17.10;99.90;;;;;;5027858;28;20061;-89
2023/06/11 04:06:42;;;;;;;14.32;10.05;;;17.20;99.90;;;;;;5032534;28;20489;-88
2023/06/11 04:09:07;;;;;;;15.73;10.85;;;17.20;99.90;;;;;;5035430;28;20067;-88
2023/06/11 04:11:33;;;;;;;15.48;11.40;;;17.20;99.90;;;;;;5034240;28;20473;-88
2023/06/11 04:13:59;;;;;;;16.25;10.90;;;17.20;99.90;;;;;;5033554;28;20049;-88
2023/06/11 04:16:24;;;;;;;16.73;10.98;;;17.90;99.90;;;;;;5033833;28;20041;-88
2023/06/11 04:18:50;;;;;;;14.68;10.95;;;17.30;99.90;;;;;;5034064;28;20440;-89
2023/06/11 04:21:16;;;;;;;14.93;11.23;;;17.30;99.90;;;;;;5033440;28;20085;-88
2023/06/11 04:23:42;;;;;;;15.65;11.15;;;17.30;99.90;;;;;;5034041;28;20100;-89
2023/06/11 04:26:07;;;;;;;14.95;10.85;;;17.50;99.90;;;;;;5035291;28;20461;-88
2023/06/11 04:28:37;;;;;;;16.10;11.32;;;17.30;99.90;;;;;;5034341;28;20041;-88
2023/06/11 04:31:06;;;;;;;15.50;11.43;;;17.70;99.90;;;;;;5035184;28;20524;-88
2023/06/11 04:33:32;;;;;;;15.13;10.85;;;17.70;99.90;;;;;;5034313;28;20045;-87
2023/06/11 04:36:00;;;;;;;18.80;11.60;;;17.50;99.90;;;;;;5034947;28;20052;-88
2023/06/11 04:38:28;;;;;;;15.43;11.20;;;17.50;99.90;;;;;;5034194;28;20509;-88
2023/06/11 04:40:55;;;;;;;16.73;11.32;;;17.50;99.90;;;;;;5035405;28;20045;-88
2023/06/11 04:43:22;;;;;;;15.38;10.77;;;17.60;99.90;;;;;;5034022;28;20041;-88
2023/06/11 04:45:49;;;;;;;15.45;11.25;;;17.70;99.90;;;;;;5053595;28;20044;-88
2023/06/11 04:48:20;;;;;;;16.52;11.38;;;17.70;99.90;;;;;;5057558;28;20047;-87
2023/06/11 04:50:46;;;;;;;15.45;11.30;;;17.80;99.90;;;;;;5036607;28;20058;-88
2023/06/11 04:53:12;;;;;;;16.63;11.95;;;17.80;99.90;;;;;;5036532;28;20067;-87
2023/06/11 04:55:39;;;;;;;16.23;11.68;;;17.80;99.90;;;;;;5034943;28;20162;-87
2023/06/11 04:58:05;;;;;;;16.27;11.52;;;17.90;99.90;;;;;;5033237;28;20128;-88
2023/06/11 05:00:31;;;;;;;16.20;11.65;;;18.00;99.90;;;;;;5033595;28;20140;-87
2023/06/11 05:02:56;;;;;;;15.40;10.98;;;18.00;99.90;;;;;;5032986;28;20061;-88
2023/06/11 05:05:22;;;;;;;16.45;11.27;;;18.00;99.90;;;;;;5034334;28;20474;-88
2023/06/11 05:07:47;;;;;;;16.60;11.65;;;18.10;99.90;;;;;;5033216;28;20087;-87
2023/06/11 05:10:15;;;;;;;17.48;11.15;;;18.20;99.90;;;;;;5033707;28;20072;-88
2023/06/11 05:12:40;;;;;;;16.30;11.65;;;18.30;99.90;;;;;;5033341;28;20053;-87
2023/06/11 05:15:07;;;;;;;16.80;11.65;;;18.30;99.90;;;;;;5032875;28;20041;-89
2023/06/11 05:17:32;;;;;;;16.27;11.73;;;18.40;99.90;;;;;;5033716;28;20056;-88
2023/06/11 05:19:58;;;;;;;17.58;11.63;;;18.50;99.90;;;;;;5032932;28;20409;-88
2023/06/11 05:22:23;;;;;;;14.80;11.05;;;18.80;99.90;;;;;;5032854;28;20046;-88
2023/06/11 05:24:49;;;;;;;17.42;11.23;;;18.70;99.90;;;;;;5032215;28;20041;-88
2023/06/11 05:27:15;;;;;;;16.25;11.48;;;18.70;99.90;;;;;;5032480;28;20045;-88
2023/06/11 05:29:41;;;;;;;15.23;10.98;;;18.80;99.90;;;;;;5034014;28;20046;-89
2023/06/11 05:32:08;;;;;;;16.23;11.25;;;19.20;99.90;;;;;;5033181;28;20095;-88
2023/06/11 05:34:34;;;;;;;15.90;10.68;;;18.90;99.90;;;;;;5033106;28;20515;-88
2023/06/11 05:37:01;;;;;;;15.73;11.05;;;19.40;99.90;;;;;;5032551;28;20044;-88
2023/06/11 05:39:26;;;;;;;16.75;11.20;;;19.90;99.90;;;;;;5031659;28;20474;-88
2023/06/11 05:41:52;;;;;;;15.73;10.93;;;19.30;99.90;;;;;;5032888;28;20049;-88
2023/06/11 05:44:17;;;;;;;13.75;10.32;;;19.30;99.90;;;;;;5032098;28;20049;-88
2023/06/11 05:46:43;;;;;;;16.02;10.27;;;19.40;99.90;;;;;;5033242;28;20377;-88
2023/06/11 05:49:12;;;;;;;14.98;9.73;;;19.50;99.90;;;;;;5032112;28;20088;-88
2023/06/11 05:51:37;;;;;;;16.65;9.90;;;19.60;99.90;;;;;;5032548;28;20485;-88
2023/06/11 05:54:03;;;;;;;14.52;10.18;;;19.80;99.90;;;;;;5031182;28;20048;-88
2023/06/11 05:56:28;;;;;;;14.15;9.82;;;19.80;99.90;;;;;;5033581;28;20037;-88
2023/06/11 05:58:54;;;;;;;14.60;10.10;;;19.90;99.90;;;;;;5032220;28;20481;-89
2023/06/11 06:01:21;;;;;;;16.13;10.63;;;20.00;99.90;;;;;;5031376;28;20179;-88
2023/06/11 06:03:47;;;;;;;12.65;9.18;;;20.00;99.90;;;;;;5033374;28;20512;-89
2023/06/11 06:06:12;;;;;;;14.05;9.70;;;20.20;99.90;;;;;;5032487;28;20073;-88
2023/06/11 06:08:38;;;;;;;15.38;9.93;;;20.20;99.90;;;;;;5033552;28;20107;-88
2023/06/11 06:11:04;;;;;;;14.95;10.45;;;20.30;99.90;;;;;;5032365;28;20139;-89
2023/06/11 06:13:29;;;;;;;14.75;9.90;;;20.50;99.90;;;;;;5030863;28;20038;-89
2023/06/11 06:15:55;;;;;;;15.50;10.32;;;20.40;99.90;;;;;;5031946;28;20048;-89
2023/06/11 06:18:21;;;;;;;14.65;9.95;;;20.60;99.90;;;;;;5033132;28;20409;-88
2023/06/11 06:20:47;;;;;;;13.68;9.30;;;20.70;99.90;;;;;;5034817;28;20191;-89
2023/06/11 06:23:12;;;;;;;13.13;10.02;;;20.70;99.90;;;;;;5034548;28;20072;-89
2023/06/11 06:25:38;;;;;;;14.38;9.30;;;20.80;99.90;;;;;;5033719;28;20085;-88
2023/06/11 06:28:07;;;;;;;13.07;9.45;;;20.90;99.90;;;;;;5031683;28;20041;-89
2023/06/11 06:30:33;;;;;;;13.60;9.52;;;21.00;99.90;;;;;;5032671;28;20500;-89
2023/06/11 06:32:59;;;;;;;14.60;9.85;;;21.10;99.90;;;;;;5034257;28;20109;-89
2023/06/11 06:35:25;;;;;;;15.82;9.18;;;21.20;99.90;;;;;;5032055;28;20133;-88
2023/06/11 06:37:51;;;;;;;12.82;9.15;;;21.80;99.90;;;;;;5032063;28;20124;-88
2023/06/11 06:40:17;;;;;;;13.48;9.32;;;21.40;99.90;;;;;;5031105;28;20057;-89
2023/06/11 06:42:42;;;;;;;12.88;9.25;;;21.50;99.90;;;;;;5031043;28;20045;-88
2023/06/11 06:45:08;;;;;;;12.85;9.45;;;21.70;99.90;;;;;;5031362;28;20482;-88
2023/06/11 06:47:34;;;;;;;13.48;9.27;;;21.80;99.90;;;;;;5031828;28;20079;-88
2023/06/11 06:50:00;;;;;;;11.70;8.73;;;21.90;99.90;;;;;;5030765;28;20073;-89
2023/06/11 06:52:26;;;;;;;13.80;9.30;;;22.00;99.90;;;;;;5031227;28;20064;-89
2023/06/11 06:54:52;;;;;;;14.43;9.05;;;22.10;99.90;;;;;;5032712;28;20557;-88
2023/06/11 06:57:18;;;;;;;13.43;9.70;;;22.30;99.90;;;;;;5030632;28;20197;-88
2023/06/11 06:59:43;;;;;;;12.73;9.38;;;22.40;99.90;;;;;;5032595;28;20054;-90
2023/06/11 07:02:09;;;;;;;13.43;9.07;;;22.50;99.90;;;;;;5031089;28;20053;-84
2023/06/11 07:04:35;;;;;;;12.90;9.55;;;23.00;99.90;;;;;;5030573;28;20045;-83
2023/06/11 07:07:00;;;;;;;12.65;9.32;;;22.80;99.90;;;;;;5035049;28;20037;-83
2023/06/11 07:09:26;;;;;;;13.20;9.40;;;22.90;99.90;;;;;;5035509;28;20045;-84
2023/06/11 07:11:52;;;;;;;14.30;9.27;;;23.50;99.90;;;;;;5035577;28;20064;-84
2023/06/11 07:14:19;;;;;;;13.80;8.80;;;23.10;99.90;;;;;;5036239;28;20045;-84
2023/06/11 07:16:44;;;;;;;14.65;9.32;;;23.40;99.90;;;;;;5035951;28;20041;-84
2023/06/11 07:19:10;;;;;;;13.55;9.30;;;23.40;99.90;;;;;;5035831;28;20057;-84
2023/06/11 07:21:36;;;;;;;13.15;8.95;;;23.60;99.80;;;;;;5036599;28;20042;-84
2023/06/11 07:24:04;;;;;;;12.45;9.02;;;23.70;99.30;;;;;;5035852;28;20041;-84
2023/06/11 07:26:30;;;;;;;12.27;8.68;;;23.80;99.00;;;;;;5036133;28;20077;-84
2023/06/11 07:28:56;;;;;;;13.10;8.73;;;24.00;98.90;;;;;;5036387;28;20089;-84
2023/06/11 07:31:22;;;;;;;12.63;8.70;;;24.00;98.50;;;;;;5035551;28;20099;-84
2023/06/11 07:33:49;;;;;;;14.43;9.00;;;24.30;98.30;;;;;;5036306;28;20481;-84
2023/06/11 07:36:15;;;;;;;13.98;9.20;;;24.40;98.10;;;;;;5034808;28;20045;-84
2023/06/11 07:38:42;;;;;;;14.38;8.85;;;24.50;97.70;;;;;;5034154;28;20131;-84
2023/06/11 07:41:08;;;;;;;17.20;8.90;;;24.60;97.60;;;;;;5034519;28;20053;-84
2023/06/11 07:43:34;;;;;;;14.82;8.85;;;24.80;97.30;;;;;;5035983;28;20400;-83
2023/06/11 07:45:59;;;;;;;11.82;8.55;;;24.80;96.80;;;;;;5034259;28;20045;-84
2023/06/11 07:48:25;;;;;;;13.90;8.40;;;24.90;96.50;;;;;;5034267;28;20570;-84
2023/06/11 07:50:52;;;;;;;12.18;8.25;;;25.10;96.60;;;;;;5036124;28;20041;-84
2023/06/11 07:53:19;;;;;;;11.95;8.63;;;25.20;96.40;;;;;;5035112;28;20115;-84
2023/06/11 07:55:45;;;;;;;11.90;8.70;;;25.30;96.20;;;;;;5035812;28;20409;-84
2023/06/11 07:58:10;;;;;;;11.73;7.88;;;25.30;95.80;;;;;;5035583;28;20037;-84
2023/06/11 08:00:36;;;;;;;11.32;7.72;;;25.40;95.40;;;;;;5039197;28;20560;-84
2023/06/11 08:03:02;;;;;;;11.48;7.93;;;25.50;95.30;;;;;;5040229;28;20037;-84
2023/06/11 08:05:27;;;;;;;11.70;8.50;;;25.60;95.20;;;;;;5035390;28;20133;-84
2023/06/11 08:07:53;;;;;;;13.73;8.63;;;25.70;94.70;;;;;;5034026;28;20045;-84
2023/06/11 08:10:18;;;;;;;14.30;8.57;;;25.80;94.80;;;;;;5034235;28;20084;-84
2023/06/11 08:12:44;;;;;;;13.02;8.55;;;25.90;94.80;;;;;;5034954;28;20087;-84
2023/06/11 08:15:10;;;;;;;12.10;8.55;;;26.00;94.70;;;;;;5033829;28;20049;-84
2023/06/11 08:17:35;;;;;;;13.13;8.55;;;26.20;94.60;;;;;;5033471;28;20219;-84
2023/06/11 08:20:06;;;;;;;14.07;8.43;;;26.30;94.50;;;;;;5032979;28;20144;-84
2023/06/11 08:22:31;;;;;;;12.93;8.50;;;26.40;94.00;;;;;;5035318;28;20080;-84
2023/06/11 08:24:57;;;;;;;12.07;7.78;;;26.50;94.00;;;;;;5034122;28;20095;-84
2023/06/11 08:27:22;;;;;;;11.07;8.35;;;26.60;93.90;;;;;;5032767;28;20542;-84
2023/06/11 08:29:48;;;;;;;11.35;7.85;;;26.70;93.80;;;;;;5035397;28;20049;-84
2023/06/11 08:32:14;;;;;;;13.98;7.78;;;26.90;93.90;;;;;;5033763;28;20049;-84
2023/06/11 08:34:41;;;;;;;14.38;7.75;;;27.00;93.70;;;;;;5033264;28;20397;-84
2023/06/11 08:37:06;;;;;;;15.70;7.95;;;27.10;93.50;;;;;;5034697;28;20099;-84
2023/06/11 08:39:32;;;;;;;12.45;8.48;;;27.10;93.30;;;;;;5033905;28;20520;-84
2023/06/11 08:41:58;;;;;;;10.88;7.75;;;27.10;92.90;;;;;;5034226;28;20474;-84
2023/06/11 08:44:23;;;;;;;12.70;8.15;;;27.20;93.00;;;;;;5033346;28;20046;-84
2023/06/11 08:46:51;;;;;;;11.25;7.70;;;27.40;93.00;;;;;;5033943;28;20045;-83
2023/06/11 08:49:21;;;;;;;11.77;8.15;;;27.50;92.90;;;;;;5032953;28;20049;-84
2023/06/11 08:51:47;;;;;;;10.57;7.60;;;27.50;92.50;;;;;;5033694;28;20048;-84
2023/06/11 08:54:15;;;;;;;12.25;8.30;;;27.60;92.60;;;;;;5033064;28;20111;-84
2023/06/11 08:56:40;;;;;;;13.48;8.18;;;27.60;92.40;;;;;;5032771;28;20428;-85
2023/06/11 08:59:06;;;;;;;11.02;8.00;;;27.70;92.20;;;;;;5032451;28;20049;-79
2023/06/11 09:01:32;;;;;;;11.35;7.97;;;27.60;92.10;;;;;;5032741;28;20048;-82
2023/06/11 09:03:58;;;;;;;11.85;8.07;;;27.70;91.90;;;;;;5032124;28;20048;-82
2023/06/11 09:06:24;;;;;;;12.10;8.00;;;27.80;91.80;;;;;;5032864;28;20064;-83
2023/06/11 09:09:01;;;;;;;11.40;7.65;;;28.00;91.80;;;;;;5032990;28;20045;-83
2023/06/11 09:11:37;;;;;;;12.10;7.93;;;28.10;91.40;;;;;;5034197;28;20045;-83
2023/06/11 09:14:04;;;;;;;14.00;7.82;;;28.30;91.40;;;;;;5033964;28;20501;-83
2023/06/11 09:16:44;;;;;;;12.25;7.97;;;28.50;91.40;;;;;;5033356;28;20037;-84
2023/06/11 09:19:18;;;;;;;10.95;7.68;;;28.50;90.90;;;;;;5032513;28;20460;-82
2023/06/11 09:21:52;;;;;;;12.57;7.65;;;28.50;90.90;;;;;;5032970;28;20404;-83
2023/06/11 09:24:19;;;;;;;10.73;7.45;;;28.50;89.60;;;;;;5033423;28;20115;-82
2023/06/11 09:26:56;;;;;;;10.23;7.10;;;28.50;90.60;;;;;;5020361;28;20077;-81
2023/06/11 09:29:22;;;;;;;14.05;7.38;;;28.70;90.40;;;;;;5032557;28;20045;-81
2023/06/11 09:31:49;;;;;;;10.45;7.13;;;28.80;90.50;;;;;;5032696;28;20508;-82
2023/06/11 09:34:22;;;;;;;10.48;7.60;;;28.90;90.20;;;;;;5021003;28;20093;-82
2023/06/11 09:36:47;;;;;;;;;;;29.10;89.50;;;;;;5013196;28;20125;-82
2023/06/11 09:39:16;;;;;;;11.65;7.10;;;29.10;89.00;;;;;;5011471;28;20015;-81
2023/06/11 09:41:51;;;;;;;10.73;7.13;;;29.10;90.00;;;;;;5012536;28;20088;-82
2023/06/11 09:44:20;;;;;;;9.85;6.88;;;29.20;87.50;;;;;;5012400;28;20478;-80
2023/06/11 09:46:49;;;;;;;11.90;6.90;;;29.30;89.00;;;;;;5007378;28;20060;-88
2023/06/11 09:49:16;;;;;;;11.98;6.95;;;29.30;87.30;;;;;;5031771;28;20048;-83
2023/06/11 09:51:45;;;;;;;9.57;6.55;;;29.40;87.40;;;;;;5031278;28;20046;-83
2023/06/11 09:54:24;;;;;;;;;;;;;;;;;;;;;
2023/06/11 09:56:57;;;;;;;10.98;6.53;;;29.50;86.80;;;;;;5032236;28;20057;-84
2023/06/11 09:59:23;;;;;;;10.27;6.40;;;29.60;85.70;;;;;;5016280;28;20045;-81
2023/06/11 10:01:50;;;;;;;10.18;5.90;;;29.70;85.50;;;;;;5020385;28;20040;-81
2023/06/11 10:04:16;;;;;;;10.45;7.10;;;29.70;84.90;;;;;;5024011;28;20477;-83
2023/06/11 10:06:51;;;;;;;10.55;6.75;;;30.00;84.80;;;;;;5018379;28;20038;-83
2023/06/11 10:09:30;;;;;;;11.10;7.03;;;30.30;84.90;;;;;;5021822;28;20103;-83
2023/06/11 10:11:56;;;;;;;12.30;7.40;;;30.30;84.00;;;;;;5019371;28;20042;-83
2023/06/11 10:14:33;;;;;;;;;;;;;;;;;;;;;
2023/06/11 10:17:29;;;;;;;11.50;6.68;;;30.40;83.70;;;;;;5021666;28;20061;-82
2023/06/11 10:19:55;;;;;;;9.73;6.57;;;30.40;83.30;;;;;;5031854;28;20143;-82
2023/06/11 10:22:33;;;;;;;12.13;7.30;;;30.50;83.40;;;;;;5031258;28;20052;-82
2023/06/11 10:25:00;;;;;;;10.77;6.88;;;30.50;82.30;;;;;;5033236;28;20052;-82
2023/06/11 10:27:35;;;;;;;10.70;6.97;;;30.60;83.00;;;;;;5031661;28;20412;-83
2023/06/11 10:30:24;;;;;;;11.25;6.70;;;30.40;81.80;;;;;;5030757;28;20049;-81
2023/06/11 10:32:50;;;;;;;10.07;6.97;;;30.40;81.40;;;;;;5031405;28;20050;-81
2023/06/11 10:35:22;;;;;;;10.65;7.00;;;30.60;81.70;;;;;;5031933;28;20037;-81
2023/06/11 10:37:48;;;;;;;11.63;7.22;;;30.60;80.10;;;;;;5031633;28;20098;-81
2023/06/11 10:40:14;;;;;;;9.63;6.47;;;30.80;81.00;;;;;;5032321;28;20470;-82
2023/06/11 10:42:54;;;;;;;11.27;6.45;;;30.80;79.80;;;;;;5032142;28;20084;-83
2023/06/11 10:45:20;;;;;;;11.35;6.30;;;30.90;80.10;;;;;;5014653;28;20397;-83
2023/06/11 10:47:49;;;;;;;12.35;6.47;;;31.10;79.90;;;;;;5010879;28;20493;-81
2023/06/11 10:50:57;;;;;;;12.20;6.47;;;31.30;78.90;;;;;;5014894;28;20042;-81
2023/06/11 10:54:00;;;;;;;11.43;6.38;;;31.40;77.60;;;;;;4954719;28;20064;-81
2023/06/11 10:56:28;;;;;;;11.05;6.28;;;31.40;76.60;;;;;;4977900;28;20051;-81
2023/06/11 10:58:55;;;;;;;10.07;6.28;;;31.40;76.70;;;;;;5026865;28;20084;-82
2023/06/11 11:01:21;;;;;;;11.32;6.40;;;31.30;76.20;;;;;;5019610;28;20528;-81
2023/06/11 11:03:49;;;;;;;10.10;6.20;;;31.50;76.90;;;;;;5020961;28;20109;-81
2023/06/11 11:06:25;;;;;;;10.15;6.25;;;31.80;76.60;;;;;;5020582;28;20041;-81
2023/06/11 11:08:52;;;;;;;9.77;6.45;;;32.00;75.50;;;;;;5021065;28;20084;-81
2023/06/11 11:11:17;;;;;;;12.32;6.70;;;32.00;76.30;;;;;;5020627;28;20045;-80
2023/06/11 11:13:46;;;;;;;12.82;6.88;;;32.00;76.50;;;;;;5023118;28;20116;-81
2023/06/11 11:16:12;;;;;;;10.23;6.72;;;32.00;76.00;;;;;;5020483;28;20041;-81
2023/06/11 11:18:38;;;;;;;11.65;6.32;;;32.00;75.90;;;;;;5021693;28;20038;-81
2023/06/11 11:21:04;;;;;;;11.95;6.85;;;32.00;75.10;;;;;;5019367;28;20050;-81
2023/06/11 11:23:33;;;;;;;11.48;6.57;;;32.00;75.00;;;;;;5020836;28;20056;-80
2023/06/11 11:25:58;;;;;;;10.88;6.18;;;32.10;74.80;;;;;;5021513;28;20049;-80
2023/06/11 11:28:24;;;;;;;10.10;6.57;;;32.20;74.20;;;;;;5020619;28;20030;-81
2023/06/11 11:30:51;;;;;;;11.30;6.30;;;32.30;73.90;;;;;;5021320;28;20476;-81
2023/06/11 11:33:17;;;;;;;13.40;6.22;;;32.40;74.20;;;;;;5014493;28;20046;-81
2023/06/11 11:35:48;;;;;;;11.88;6.63;;;32.60;73.90;;;;;;5025765;28;20045;-81
2023/06/11 11:38:14;;;;;;;10.65;6.82;;;32.70;73.80;;;;;;5029660;28;20436;-81
2023/06/11 11:40:39;;;;;;;11.10;6.45;;;32.50;72.80;;;;;;5030160;28;20053;-81
2023/06/11 11:43:05;;;;;;;12.15;6.30;;;32.40;73.00;;;;;;5030395;28;20041;-81
2023/06/11 11:45:33;;;;;;;10.98;6.45;;;32.40;72.20;;;;;;5024997;28;20041;-81
2023/06/11 11:48:00;;;;;;;11.10;6.28;;;32.50;71.70;;;;;;5019233;28;20490;-81
2023/06/11 11:50:27;;;;;;;11.50;6.68;;;32.50;71.40;;;;;;5022850;28;20357;-81
2023/06/11 11:53:03;;;;;;;11.10;6.57;;;32.50;71.20;;;;;;5020297;28;20050;-81
2023/06/11 11:55:31;;;;;;;10.07;6.13;;;32.80;71.10;;;;;;5026941;28;20037;-81
2023/06/11 11:58:11;;;;;;;9.88;6.03;;;32.90;70.70;;;;;;5033242;28;20501;-81
2023/06/11 12:00:56;;;;;;;10.32;5.93;;;33.20;70.90;;;;;;5033277;28;20060;-81
2023/06/11 12:03:22;;;;;;;11.40;6.63;;;33.40;70.80;;;;;;5035272;28;20038;-82
2023/06/11 12:06:00;;;;;;;11.95;6.40;;;33.50;70.90;;;;;;5026036;28;20132;-81
2023/06/11 12:08:27;;;;;;;11.05;6.10;;;33.90;71.40;;;;;;5035047;28;20045;-81
2023/06/11 12:10:53;;;;;;;10.85;6.53;;;34.00;70.60;;;;;;5032346;28;20065;-81
2023/06/11 12:13:19;;;;;;;12.02;6.30;;;34.20;69.60;;;;;;5023029;28;20065;-81
2023/06/11 12:15:45;;;;;;;12.02;6.40;;;33.50;69.10;;;;;;5024934;28;20095;-81
2023/06/11 12:18:11;;;;;;;10.50;6.03;;;33.70;69.70;;;;;;5025268;28;20083;-81
2023/06/11 12:20:36;;;;;;;9.73;6.22;;;33.80;68.40;;;;;;5029691;28;20455;-81
2023/06/11 12:23:03;;;;;;;11.60;6.50;;;33.80;68.90;;;;;;5035261;28;20041;-80
2023/06/11 12:25:30;;;;;;;12.10;6.53;;;33.70;68.80;;;;;;5034952;28;20041;-81
2023/06/11 12:27:56;;;;;;;11.40;6.22;;;33.70;69.10;;;;;;5033146;28;20054;-81
2023/06/11 12:30:22;;;;;;;9.55;6.25;;;33.70;68.40;;;;;;5035069;28;20036;-81
2023/06/11 12:32:48;;;;;;;12.68;6.60;;;34.00;68.30;;;;;;5033710;28;20050;-81
2023/06/11 12:35:14;;;;;;;10.60;6.60;;;34.30;68.40;;;;;;5032736;28;20045;-80
2023/06/11 12:37:40;;;;;;;10.65;6.43;;;33.80;68.50;;;;;;5035239;28;20366;-80
2023/06/11 12:40:06;;;;;;;12.73;6.72;;;33.30;68.70;;;;;;5032680;28;20199;-80